MSC Clea — CQID6 — position and weather

sailwx.info

Track history (hours):
 
Tides and Currents Weather Stations Pressure Air Temp Water Temp Dewpoint Dewpoint Depression Visibility Wind Speed Wind Dir Waves Ship Positions

MSC Clea

Last reported at 2017-Oct-22 17:35 UTC. Time now 2017-Oct-22 19:05 UTC.
Position N 35°33' W 022°30'.

Length 300 m; draft 12.2 m.

Type: Cargo ship. MMSI: 255805930.

Date/timePositionNaut miles runAvg speedWind from/ knotsBaromVisibWave heightAir tempDewpointWater temp
2017-Oct-22 17:35N 35°33' W 022°30'3820.2
2017-Oct-22 15:42N 35°31' W 023°17'619.2
2017-Oct-22 15:24N 35°31' W 023°24'613.6
2017-Oct-22 14:55N 35°31' W 023°32'2119.8
2017-Oct-22 13:51N 35°30' W 023°58'1520.3
2017-Oct-22 13:06N 35°28' W 024°16'319.9
2017-Oct-22 12:57N 35°28' W 024°20'1220.4
2017-Oct-22 12:22N 35°28' W 024°34'720.2
2017-Oct-22 12:00N 35°27' W 024°43'1519.9
2017-Oct-22 11:14N 35°25' W 025°02'  
Track history (hours):
 
Tides and Currents Weather Stations Pressure Air Temp Water Temp Dewpoint Dewpoint Depression Visibility Wind Speed Wind Dir Waves Ship Positions

MSC Clea

Last reported at 2017-Oct-22 17:35 UTC. Time now 2017-Oct-22 19:05 UTC.
Position N 35°33' W 022°30'.

Length 300 m; draft 12.2 m.

Type: Cargo ship. MMSI: 255805930.

Date/timePositionNaut miles runAvg speedWind from/ knotsBaromVisibWave heightAir tempDewpointWater temp
2017-Oct-22 17:35N 35°33' W 022°30'3820.2
2017-Oct-22 15:42N 35°31' W 023°17'619.2
2017-Oct-22 15:24N 35°31' W 023°24'613.6
2017-Oct-22 14:55N 35°31' W 023°32'2119.8
2017-Oct-22 13:51N 35°30' W 023°58'1520.3
2017-Oct-22 13:06N 35°28' W 024°16'319.9
2017-Oct-22 12:57N 35°28' W 024°20'1220.4
2017-Oct-22 12:22N 35°28' W 024°34'720.2
2017-Oct-22 12:00N 35°27' W 024°43'1519.9
2017-Oct-22 11:14N 35°25' W 025°02'  

Dump ship's entire track history